Ana Sayfa
METAR-TAF:

METAR-TAF

Havaalanları :

Coatesville, Pensilvanya, Amerika Birleşik Devletleri

Enlem: 39-58-44N, Boylam: 075-51-56W, yükseklik: 201 m

Güncel hava durumu gözlemi

Rapor saat 15:15 UTC de 14 dakika önce yapıldı.
Rüzgar değişken yönden 6 kt
Sıcaklık 27°C
Nem 79%
Basınç 1016 hPa
Görüş mesafesi: 16.1 km
1900 ft yükseklikte parçalı bulutlu

METAR: KMQS 211515Z AUTO VRB06KT 10SM SCT019 27/23 A2999 RMK AO2

Saat: 11:29 (15:29 UTC)


TAF: eksik

4.000'den fazla havaalanı için hava durumu gözlemleri ve tahminleri (METAR ve TAF raporları).

Kullanılabilir istasyonlar harita üzerinde sarı ve kırmızı noktalarla gösterilir.

İstasyonun adını görmek için fareyi noktanın üzerinde gezdirin.

Sonrasında hava gözlem ve tahminlerini görmek için tıklayın.

Haritayı değiştirmek için: yaklaştırmak için siyah artı işaretli yeşil düğmeye ve uzaklaştırmak için de eksi işaretli düğmeye hızla tıklayın; bitişik haritalar için yeşil okları kullanın.


METAR-TAF: